Time;durP1;ratioP1;P1;durP2;ratioP2;P2;SDS_P1;SDS_P2;PMS_P1;PMS_P2;Temp;Humidity;BMP_temperature;BMP_pressure;BME280_temperature;BME280_humidity;BME280_pressure;Samples;Min_cycle;Max_cycle;Signal;HPM_P1;HPM_P2
2022/06/07 00:00:21;;;;;;;;;;;;;;;-145.88;100.00;58037.16;2066933;28;1164;-74
2022/06/07 00:01:24;;;;;;;;;;;;;;;-145.88;100.00;58037.16;2066554;28;1098;-75
2022/06/07 00:02:29;;;;;;;;;;;;;;;-145.88;100.00;58037.16;2066185;28;1285;-75
2022/06/07 00:03:32;;;;;;;;;;;;;;;-145.88;100.00;58037.16;2065994;28;2012;-75
2022/06/07 00:04:36;;;;;;;;;;;;;;;-145.88;100.00;58037.16;2066260;28;1114;-73
2022/06/07 00:05:40;;;;;;;;;;;;;;;-145.88;100.00;58037.16;2066429;28;1058;-74
2022/06/07 00:06:42;;;;;;;;;;;;;;;-145.88;100.00;58037.16;2066240;28;1174;-75
2022/06/07 00:07:44;;;;;;;;;;;;;;;-145.88;100.00;58037.16;2057677;28;1097;-75
2022/06/07 00:08:47;;;;;;;;;;;;;;;-145.88;100.00;58037.16;2066464;28;1681;-74
2022/06/07 00:09:50;;;;;;;;;;;;;;;-145.88;100.00;58037.16;2066141;28;1059;-75
2022/06/07 00:10:53;;;;;;;;;;;;;;;-145.88;100.00;58037.16;2066280;28;1138;-74
2022/06/07 00:11:54;;;;;;;;;;;;;;;-145.88;100.00;58037.16;2066226;28;1285;-74
2022/06/07 00:12:57;;;;;;;;;;;;;;;-145.88;100.00;58037.16;2066545;28;1345;-73
2022/06/07 00:14:00;;;;;;;;;;;;;;;-145.88;100.00;58037.16;2065763;28;1175;-73
2022/06/07 00:15:02;;;;;;;;;;;;;;;-145.88;100.00;58037.16;2066082;28;1805;-74
2022/06/07 00:16:05;;;;;;;;;;;;;;;-145.88;100.00;58037.16;2066194;28;1190;-72
2022/06/07 00:17:07;;;;;;;;;;;;;;;-145.88;100.00;58037.16;2065755;28;1019;-74
2022/06/07 00:18:11;;;;;;;;;;;;;;;-145.88;100.00;58037.16;2065308;28;1054;-73
2022/06/07 00:19:12;;;;;;;;;;;;;;;-145.88;100.00;58037.16;2059297;28;1060;-74
2022/06/07 00:20:17;;;;;;;;;;;;;;;-145.88;100.00;58037.16;2065903;28;1236;-72
2022/06/07 00:21:20;;;;;;;;;;;;;;;-145.88;100.00;58037.16;2066211;28;1097;-74
2022/06/07 00:22:22;;;;;;;;;;;;;;;-145.88;100.00;58037.16;2066120;28;1105;-75
2022/06/07 00:23:24;;;;;;;;;;;;;;;-145.88;100.00;58037.16;2066006;28;1177;-73
2022/06/07 00:24:26;;;;;;;;;;;;;;;-145.88;100.00;58037.16;2065489;28;1951;-74
2022/06/07 00:25:29;;;;;;;;;;;;;;;-145.88;100.00;58037.16;2066107;28;1323;-74
2022/06/07 00:26:32;;;;;;;;;;;;;;;-145.88;100.00;58037.16;2066063;28;1066;-74
2022/06/07 00:27:35;;;;;;;;;;;;;;;-145.88;100.00;58037.16;2066320;28;1141;-72
2022/06/07 00:28:38;;;;;;;;;;;;;;;-145.88;100.00;58037.16;2065909;28;1169;-73
2022/06/07 00:29:40;;;;;;;;;;;;;;;-145.88;100.00;58037.16;2061294;28;1197;-73
2022/06/07 00:30:43;;;;;;;;;;;;;;;-145.88;100.00;58037.16;2061062;28;1706;-73
2022/06/07 00:31:46;;;;;;;;;;;;;;;-145.88;100.00;58037.16;2065181;28;1027;-74
2022/06/07 00:32:48;;;;;;;;;;;;;;;-145.88;100.00;58037.16;2065765;28;1115;-74
2022/06/07 00:33:51;;;;;;;;;;;;;;;-145.88;100.00;58037.16;2065870;28;1074;-74
2022/06/07 00:34:53;;;;;;;;;;;;;;;-145.88;100.00;58037.16;2066362;28;991;-74
2022/06/07 00:35:57;;;;;;;;;;;;;;;-145.88;100.00;58037.16;2065952;28;1118;-75
2022/06/07 00:37:00;;;;;;;;;;;;;;;-145.88;100.00;58037.16;2066093;28;996;-74
2022/06/07 00:38:03;;;;;;;;;;;;;;;-145.88;100.00;58037.16;2065960;28;1501;-74
2022/06/07 00:39:06;;;;;;;;;;;;;;;-145.88;100.00;58037.16;2065694;28;1066;-70
2022/06/07 00:40:08;;;;;;;;;;;;;;;-145.88;100.00;58037.16;2065888;28;1174;-74
2022/06/07 00:41:11;;;;;;;;;;;;;;;-145.88;100.00;58037.16;2061655;28;1084;-73
2022/06/07 00:42:13;;;;;;;;;;;;;;;-145.88;100.00;58037.16;2061105;28;1113;-74
2022/06/07 00:43:16;;;;;;;;;;;;;;;-145.88;100.00;58037.16;2066109;28;1050;-74
2022/06/07 00:44:36;;;;;;;;;;;;;;;-145.88;100.00;58037.16;2065512;28;1910;-74
2022/06/07 00:45:39;;;;;;;;;;;;;;;-145.88;100.00;58037.16;2066018;28;1050;-72
2022/06/07 00:46:46;;;;;;;;;;;;;;;-145.88;100.00;58037.16;2065758;28;1063;-74
2022/06/07 00:47:49;;;;;;;;;;;;;;;-145.88;100.00;58037.16;2065931;28;1111;-75
2022/06/07 00:48:51;;;;;;;;;;;;;;;-145.88;100.00;58037.16;2065935;28;1146;-74
2022/06/07 00:49:56;;;;;;;;;;;;;;;-145.88;100.00;58037.16;2065910;28;1293;-75
2022/06/07 00:51:02;;;;;;;;;;;;;;;-145.88;100.00;58037.16;2065853;28;1533;-71
2022/06/07 00:52:05;;;;;;;;;;;;;;;-145.88;100.00;58037.16;2066040;28;1105;-75
2022/06/07 00:53:16;;;;;;;;;;;;;;;-145.88;100.00;58037.16;2056716;28;1138;-74
2022/06/07 00:54:19;;;;;;;;;;;;;;;-145.88;100.00;58037.16;2065251;28;1126;-73
2022/06/07 00:55:22;;;;;;;;;;;;;;;-145.88;100.00;58037.16;2065867;28;1019;-75
2022/06/07 00:56:24;;;;;;;;;;;;;;;-145.88;100.00;58037.16;2066077;28;1112;-75
2022/06/07 00:57:28;;;;;;;;;;;;;;;-145.88;100.00;58037.16;2065973;28;1054;-75
2022/06/07 00:58:30;;;;;;;;;;;;;;;-145.88;100.00;58037.16;2065694;28;1054;-75
2022/06/07 00:59:33;;;;;;;;;;;;;;;-145.88;100.00;58037.16;2066415;28;1307;-75
2022/06/07 01:00:36;;;;;;;;;;;;;;;-145.88;100.00;58037.16;2065619;28;1333;-71
2022/06/07 01:01:38;;;;;;;;;;;;;;;-145.88;100.00;58037.16;2066082;28;1185;-73
2022/06/07 01:02:41;;;;;;;;;;;;;;;-145.88;100.00;58037.16;2066002;28;1003;-74
2022/06/07 01:03:43;;;;;;;;;;;;;;;-145.88;100.00;58037.16;2061693;28;1119;-73
2022/06/07 01:04:46;;;;;;;;;;;;;;;-145.88;100.00;58037.16;2060709;28;1985;-73
2022/06/07 01:05:49;;;;;;;;;;;;;;;-145.88;100.00;58037.16;2065907;28;1047;-73
2022/06/07 01:10:55;;;;;;;;;;;;;;;-145.88;100.00;58037.16;2066056;28;1023;-74
2022/06/07 01:11:56;;;;;;;;;;;;;;;-145.88;100.00;58037.16;2066153;28;1545;-74
2022/06/07 01:12:59;;;;;;;;;;;;;;;-145.88;100.00;58037.16;2065821;28;1123;-74
2022/06/07 01:14:02;;;;;;;;;;;;;;;-145.88;100.00;58037.16;2065679;28;1015;-73
2022/06/07 01:15:05;;;;;;;;;;;;;;;-145.88;100.00;58037.16;2061598;28;1075;-69
2022/06/07 01:16:09;;;;;;;;;;;;;;;-145.88;100.00;58037.16;2060378;28;1565;-74
2022/06/07 01:17:11;;;;;;;;;;;;;;;-145.88;100.00;58037.16;2065975;28;999;-74
2022/06/07 01:18:16;;;;;;;;;;;;;;;-145.88;100.00;58037.16;2065768;28;1107;-74
2022/06/07 01:19:17;;;;;;;;;;;;;;;-145.88;100.00;58037.16;2065881;28;1062;-71
2022/06/07 01:20:20;;;;;;;;;;;;;;;-145.88;100.00;58037.16;2066454;28;1134;-74
2022/06/07 01:21:30;;;;;;;;;;;;;;;-145.88;100.00;58037.16;2065831;28;1011;-73
2022/06/07 01:22:33;;;;;;;;;;;;;;;-145.88;100.00;58037.16;2065975;28;1055;-74
2022/06/07 01:23:34;;;;;;;;;;;;;;;-145.88;100.00;58037.16;2065381;28;1142;-70
2022/06/07 01:24:38;;;;;;;;;;;;;;;-145.88;100.00;58037.16;2065666;28;1182;-73
2022/06/07 01:25:40;;;;;;;;;;;;;;;-145.88;100.00;58037.16;2065781;28;1902;-75
2022/06/07 01:26:43;;;;;;;;;;;;;;;-145.88;100.00;58037.16;2061443;28;1090;-74
2022/06/07 01:27:46;;;;;;;;;;;;;;;-145.88;100.00;58037.16;2061314;28;1176;-74
2022/06/07 01:28:48;;;;;;;;;;;;;;;-145.88;100.00;58037.16;2065479;28;1066;-73
2022/06/07 01:29:51;;;;;;;;;;;;;;;-145.88;100.00;58037.16;2065868;28;1097;-73
2022/06/07 01:30:56;;;;;;;;;;;;;;;-145.88;100.00;58037.16;2066227;28;1122;-71
2022/06/07 01:31:59;;;;;;;;;;;;;;;-145.88;100.00;58037.16;2065553;28;1099;-73
2022/06/07 01:33:01;;;;;;;;;;;;;;;-145.88;100.00;58037.16;2065772;28;1038;-75
2022/06/07 01:34:04;;;;;;;;;;;;;;;-145.88;100.00;58037.16;2065696;28;1182;-74
2022/06/07 01:35:06;;;;;;;;;;;;;;;-145.88;100.00;58037.16;2065440;28;1677;-74
2022/06/07 01:36:11;;;;;;;;;;;;;;;-145.88;100.00;58037.16;2066266;28;1094;-74
2022/06/07 01:37:17;;;;;;;;;;;;;;;-145.88;100.00;58037.16;2065901;28;987;-74
2022/06/07 01:38:18;;;;;;;;;;;;;;;-145.88;100.00;58037.16;2060421;28;1249;-69
2022/06/07 01:42:02;;;;;;;;;;;;;;;-145.88;100.00;58037.16;2065826;28;1008;-68
2022/06/07 01:43:04;;;;;;;;;;;;;;;-145.88;100.00;58037.16;2065659;28;1139;-69
2022/06/07 01:44:07;;;;;;;;;;;;;;;-145.88;100.00;58037.16;2067369;28;1134;-68
2022/06/07 01:45:10;;;;;;;;;;;;;;;-145.88;100.00;58037.16;2067103;28;1910;-69
2022/06/07 01:46:12;;;;;;;;;;;;;;;-145.88;100.00;58037.16;2067268;28;1054;-68
2022/06/07 01:47:17;;;;;;;;;;;;;;;-145.88;100.00;58037.16;2067368;28;1291;-68
2022/06/07 01:48:19;;;;;;;;;;;;;;;-145.88;100.00;58037.16;2067244;28;1189;-69
2022/06/07 01:49:23;;;;;;;;;;;;;;;-145.88;100.00;58037.16;2063354;28;1095;-69
2022/06/07 01:50:26;;;;;;;;;;;;;;;-145.88;100.00;58037.16;2062590;28;1082;-68
2022/06/07 01:51:28;;;;;;;;;;;;;;;-145.88;100.00;58037.16;2067688;28;1123;-69
2022/06/07 01:52:33;;;;;;;;;;;;;;;-145.88;100.00;58037.16;2067363;28;1187;-69
2022/06/07 01:53:35;;;;;;;;;;;;;;;-145.88;100.00;58037.16;2066828;28;1234;-69
2022/06/07 01:54:38;;;;;;;;;;;;;;;-145.88;100.00;58037.16;2067381;28;1123;-69
2022/06/07 01:55:41;;;;;;;;;;;;;;;-145.88;100.00;58037.16;2066930;28;1235;-69
2022/06/07 01:56:43;;;;;;;;;;;;;;;-145.88;100.00;58037.16;2067455;28;1297;-69
2022/06/07 01:57:46;;;;;;;;;;;;;;;-145.88;100.00;58037.16;2067466;28;1202;-69
2022/06/07 01:58:48;;;;;;;;;;;;;;;-145.88;100.00;58037.16;2066928;28;1383;-69
2022/06/07 01:59:51;;;;;;;;;;;;;;;-145.88;100.00;58037.16;2067523;28;1286;-69
2022/06/07 02:00:53;;;;;;;;;;;;;;;-145.88;100.00;58037.16;2059717;28;1195;-69
2022/06/07 02:01:56;;;;;;;;;;;;;;;-145.88;100.00;58037.16;2062400;28;1226;-69
2022/06/07 02:02:59;;;;;;;;;;;;;;;-145.88;100.00;58037.16;2067324;28;1284;-69
2022/06/07 02:04:01;;;;;;;;;;;;;;;-145.88;100.00;58037.16;2067110;28;1676;-69
2022/06/07 02:05:03;;;;;;;;;;;;;;;-145.88;100.00;58037.16;2072001;28;1195;-69
2022/06/07 02:06:07;;;;;;;;;;;;;;;-145.88;100.00;58037.16;2075123;28;1905;-69
2022/06/07 02:07:10;;;;;;;;;;;;;;;-145.88;100.00;58037.16;2075325;28;982;-69
2022/06/07 02:08:17;;;;;;;;;;;;;;;-145.88;100.00;58037.16;2074893;28;1034;-69
2022/06/07 02:09:21;;;;;;;;;;;;;;;-145.88;100.00;58037.16;2075621;28;1215;-69
2022/06/07 02:10:23;;;;;;;;;;;;;;;-145.88;100.00;58037.16;2075202;28;1133;-69
2022/06/07 02:11:26;;;;;;;;;;;;;;;-145.88;100.00;58037.16;2075664;28;1235;-69
2022/06/07 02:12:29;;;;;;;;;;;;;;;-145.88;100.00;58037.16;2067937;28;1246;-69
2022/06/07 02:13:31;;;;;;;;;;;;;;;-145.88;100.00;58037.16;2074333;28;1138;-68
2022/06/07 02:14:33;;;;;;;;;;;;;;;-145.88;100.00;58037.16;2075464;28;1070;-69
2022/06/07 02:15:36;;;;;;;;;;;;;;;-145.88;100.00;58037.16;2074864;28;1070;-69
2022/06/07 02:16:38;;;;;;;;;;;;;;;-145.88;100.00;58037.16;2075199;28;1154;-69
2022/06/07 02:17:41;;;;;;;;;;;;;;;-145.88;100.00;58037.16;2075344;28;1119;-68
2022/06/07 02:18:43;;;;;;;;;;;;;;;-145.88;100.00;58037.16;2075280;28;1122;-69
2022/06/07 02:19:46;;;;;;;;;;;;;;;-145.88;100.00;58037.16;2075533;28;1494;-69
2022/06/07 02:20:48;;;;;;;;;;;;;;;-145.88;100.00;58037.16;2075305;28;1180;-68
2022/06/07 02:21:50;;;;;;;;;;;;;;;-145.88;100.00;58037.16;2075167;28;1015;-68
2022/06/07 02:22:52;;;;;;;;;;;;;;;-145.88;100.00;58037.16;2075105;28;1092;-69
2022/06/07 02:23:56;;;;;;;;;;;;;;;-145.88;100.00;58037.16;2066070;28;1130;-69
2022/06/07 02:24:58;;;;;;;;;;;;;;;-145.88;100.00;58037.16;2075297;28;1402;-69
2022/06/07 02:26:03;;;;;;;;;;;;;;;-145.88;100.00;58037.16;2074742;28;1994;-69
2022/06/07 02:27:07;;;;;;;;;;;;;;;-145.88;100.00;58037.16;2075399;28;1060;-69
2022/06/07 02:28:11;;;;;;;;;;;;;;;-145.88;100.00;58037.16;2075402;28;1011;-69
2022/06/07 02:29:15;;;;;;;;;;;;;;;-145.88;100.00;58037.16;2075212;28;1186;-68
2022/06/07 02:30:17;;;;;;;;;;;;;;;-145.88;100.00;58037.16;2074831;28;1197;-68
2022/06/07 02:31:20;;;;;;;;;;;;;;;-145.88;100.00;58037.16;2075121;28;1011;-68
2022/06/07 02:32:25;;;;;;;;;;;;;;;-145.88;100.00;58037.16;2075462;28;1061;-68
2022/06/07 02:33:27;;;;;;;;;;;;;;;-145.88;100.00;58037.16;2075371;28;1062;-68
2022/06/07 02:34:30;;;;;;;;;;;;;;;-145.88;100.00;58037.16;2072176;28;1516;-71
2022/06/07 02:35:32;;;;;;;;;;;;;;;-145.88;100.00;58037.16;2070063;28;1142;-69
2022/06/07 02:36:36;;;;;;;;;;;;;;;-145.88;100.00;58037.16;2074913;28;1661;-70
2022/06/07 02:37:39;;;;;;;;;;;;;;;-145.88;100.00;58037.16;2074755;28;1058;-70
2022/06/07 02:38:42;;;;;;;;;;;;;;;-145.88;100.00;58037.16;2075071;28;1070;-71
2022/06/07 02:39:45;;;;;;;;;;;;;;;-145.88;100.00;58037.16;2075232;28;1194;-69
2022/06/07 02:40:49;;;;;;;;;;;;;;;-145.88;100.00;58037.16;2075118;28;1102;-70
2022/06/07 02:41:51;;;;;;;;;;;;;;;-145.88;100.00;58037.16;2074954;28;1189;-70
2022/06/07 02:42:54;;;;;;;;;;;;;;;-145.88;100.00;58037.16;2074750;28;1118;-70
2022/06/07 02:43:56;;;;;;;;;;;;;;;-145.88;100.00;58037.16;2074808;28;1126;-70
2022/06/07 02:44:59;;;;;;;;;;;;;;;-145.88;100.00;58037.16;2074672;28;1176;-70
2022/06/07 02:46:02;;;;;;;;;;;;;;;-145.88;100.00;58037.16;2070215;28;1902;-70
2022/06/07 02:47:06;;;;;;;;;;;;;;;-145.88;100.00;58037.16;2070319;28;1107;-70
2022/06/07 02:48:09;;;;;;;;;;;;;;;-145.88;100.00;58037.16;2074906;28;1209;-70
2022/06/07 02:49:12;;;;;;;;;;;;;;;-145.88;100.00;58037.16;2074775;28;1098;-70
2022/06/07 02:50:14;;;;;;;;;;;;;;;-145.88;100.00;58037.16;2074947;28;1206;-71
2022/06/07 02:51:17;;;;;;;;;;;;;;;-145.88;100.00;58037.16;2075234;28;1015;-70
2022/06/07 02:52:20;;;;;;;;;;;;;;;-145.88;100.00;58037.16;2074875;28;1065;-71
2022/06/07 02:53:22;;;;;;;;;;;;;;;-145.88;100.00;58037.16;2075146;28;1617;-70
2022/06/07 02:54:24;;;;;;;;;;;;;;;-145.88;100.00;58037.16;2074798;28;1143;-70
2022/06/07 02:55:28;;;;;;;;;;;;;;;-145.88;100.00;58037.16;2074400;28;1007;-70
2022/06/07 02:56:30;;;;;;;;;;;;;;;-145.88;100.00;58037.16;2075057;28;797;-70
2022/06/07 02:57:32;;;;;;;;;;;;;;;-145.88;100.00;58037.16;2070247;28;1013;-70
2022/06/07 02:58:41;;;;;;;;;;;;;;;-145.88;100.00;58037.16;2070426;28;1091;-70
2022/06/07 02:59:44;;;;;;;;;;;;;;;-145.88;100.00;58037.16;2074545;28;1399;-70
2022/06/07 03:00:46;;;;;;;;;;;;;;;-145.88;100.00;58037.16;2058788;28;1065;-69
2022/06/07 03:01:49;;;;;;;;;;;;;;;-145.88;100.00;58037.16;2058882;28;1154;-70
2022/06/07 03:02:51;;;;;;;;;;;;;;;-145.88;100.00;58037.16;2058665;28;1528;-69
2022/06/07 03:03:53;;;;;;;;;;;;;;;-145.88;100.00;58037.16;2058688;28;1198;-70
2022/06/07 03:04:55;;;;;;;;;;;;;;;-145.88;100.00;58037.16;2058448;28;1131;-69
2022/06/07 03:05:58;;;;;;;;;;;;;;;-145.88;100.00;58037.16;2058768;28;1100;-75
2022/06/07 03:07:02;;;;;;;;;;;;;;;-145.88;100.00;58037.16;2058536;28;1914;-69
2022/06/07 03:08:05;;;;;;;;;;;;;;;-145.88;100.00;58037.16;2058515;28;1272;-68
2022/06/07 03:09:07;;;;;;;;;;;;;;;-145.88;100.00;58037.16;2054254;28;1247;-69
2022/06/07 03:10:10;;;;;;;;;;;;;;;-145.88;100.00;58037.16;2055173;28;1070;-68
2022/06/07 03:11:14;;;;;;;;;;;;;;;-145.88;100.00;58037.16;2058654;28;1193;-68
2022/06/07 03:12:17;;;;;;;;;;;;;;;-145.88;100.00;58037.16;2058610;28;1011;-68
2022/06/07 03:13:19;;;;;;;;;;;;;;;-145.88;100.00;58037.16;2058870;28;1030;-68
2022/06/07 03:14:21;;;;;;;;;;;;;;;-145.88;100.00;58037.16;2058849;28;1070;-68
2022/06/07 03:15:30;;;;;;;;;;;;;;;-145.88;100.00;58037.16;2058729;28;1058;-68
2022/06/07 03:16:33;;;;;;;;;;;;;;;-145.88;100.00;58037.16;2058545;28;1123;-68
2022/06/07 03:17:35;;;;;;;;;;;;;;;-145.88;100.00;58037.16;2058522;28;1272;-68
2022/06/07 03:18:38;;;;;;;;;;;;;;;-145.88;100.00;58037.16;2058780;28;1020;-70
2022/06/07 03:19:41;;;;;;;;;;;;;;;-145.88;100.00;58037.16;2058839;28;1202;-73
2022/06/07 03:20:45;;;;;;;;;;;;;;;-145.88;100.00;58037.16;2049841;28;1260;-69
2022/06/07 03:21:48;;;;;;;;;;;;;;;-145.88;100.00;58037.16;2058587;28;1058;-69
2022/06/07 03:22:49;;;;;;;;;;;;;;;-145.88;100.00;58037.16;2058450;28;1079;-70
2022/06/07 03:23:52;;;;;;;;;;;;;;;-145.88;100.00;58037.16;2058509;28;1070;-69
2022/06/07 03:24:54;;;;;;;;;;;;;;;-145.88;100.00;58037.16;2059043;28;1097;-70
2022/06/07 03:26:02;;;;;;;;;;;;;;;-145.88;100.00;58037.16;2058581;28;1027;-72
2022/06/07 03:27:06;;;;;;;;;;;;;;;-145.88;100.00;58037.16;2058416;28;1902;-69
2022/06/07 03:28:09;;;;;;;;;;;;;;;-145.88;100.00;58037.16;2058499;28;1631;-68
2022/06/07 03:29:10;;;;;;;;;;;;;;;-145.88;100.00;58037.16;2058439;28;1055;-69
2022/06/07 03:30:14;;;;;;;;;;;;;;;-145.88;100.00;58037.16;2058377;28;1122;-68
2022/06/07 03:31:16;;;;;;;;;;;;;;;-145.88;100.00;58037.16;2055724;28;1108;-70
2022/06/07 03:32:19;;;;;;;;;;;;;;;-145.88;100.00;58037.16;2053893;28;1055;-70
2022/06/07 03:33:21;;;;;;;;;;;;;;;-145.88;100.00;58037.16;2058475;28;1070;-69
2022/06/07 03:34:24;;;;;;;;;;;;;;;-145.88;100.00;58037.16;2058441;28;1217;-69
2022/06/07 03:35:26;;;;;;;;;;;;;;;-145.88;100.00;58037.16;2058281;28;1717;-70
2022/06/07 03:36:30;;;;;;;;;;;;;;;-145.88;100.00;58037.16;2064737;28;1696;-69
2022/06/07 03:37:32;;;;;;;;;;;;;;;-145.88;100.00;58037.16;2065848;28;1174;-69
2022/06/07 03:38:34;;;;;;;;;;;;;;;-145.88;100.00;58037.16;2065809;28;1066;-69
2022/06/07 03:39:36;;;;;;;;;;;;;;;-145.88;100.00;58037.16;2066052;28;1062;-69
2022/06/07 03:40:45;;;;;;;;;;;;;;;-145.88;100.00;58037.16;2066017;28;1126;-69
2022/06/07 03:41:47;;;;;;;;;;;;;;;-145.88;100.00;58037.16;2065829;28;1240;-69
2022/06/07 03:42:51;;;;;;;;;;;;;;;-145.88;100.00;58037.16;2062521;28;1026;-69
2022/06/07 03:43:53;;;;;;;;;;;;;;;-145.88;100.00;58037.16;2061995;28;1164;-69
2022/06/07 03:44:56;;;;;;;;;;;;;;;-145.88;100.00;58037.16;2066171;28;1059;-69
2022/06/07 03:46:05;;;;;;;;;;;;;;;-145.88;100.00;58037.16;2066408;28;1015;-69
2022/06/07 03:47:08;;;;;;;;;;;;;;;-145.88;100.00;58037.16;2066178;28;1902;-68
2022/06/07 03:48:38;;;;;;;;;;;;;;;-145.88;100.00;58037.16;2066410;28;738;-70
2022/06/07 03:49:41;;;;;;;;;;;;;;;-145.88;100.00;58037.16;2066424;28;1021;-69
2022/06/07 03:50:43;;;;;;;;;;;;;;;-145.88;100.00;58037.16;2066765;28;990;-69
2022/06/07 03:51:47;;;;;;;;;;;;;;;-145.88;100.00;58037.16;2065986;28;1045;-68
2022/06/07 03:52:49;;;;;;;;;;;;;;;-145.88;100.00;58037.16;2066520;28;1006;-69
2022/06/07 03:53:52;;;;;;;;;;;;;;;-145.88;100.00;58037.16;2065845;28;1155;-70
2022/06/07 03:54:54;;;;;;;;;;;;;;;-145.88;100.00;58037.16;2059013;28;1327;-68
2022/06/07 03:55:57;;;;;;;;;;;;;;;-145.88;100.00;58037.16;2066265;28;1253;-68
2022/06/07 03:56:58;;;;;;;;;;;;;;;-145.88;100.00;58037.16;2066024;28;1122;-69
2022/06/07 03:58:03;;;;;;;;;;;;;;;-145.88;100.00;58037.16;2066073;28;1114;-68
2022/06/07 03:59:06;;;;;;;;;;;;;;;-145.88;100.00;58037.16;2065904;28;1300;-68
2022/06/07 04:00:10;;;;;;;;;;;;;;;-145.88;100.00;58037.16;2063052;28;1646;-69
2022/06/07 04:01:15;;;;;;;;;;;;;;;-145.88;100.00;58037.16;2058535;28;1092;-68
2022/06/07 04:02:18;;;;;;;;;;;;;;;-145.88;100.00;58037.16;2058466;28;1066;-69
2022/06/07 04:03:19;;;;;;;;;;;;;;;-145.88;100.00;58037.16;2058498;28;1046;-69
2022/06/07 04:04:22;;;;;;;;;;;;;;;-145.88;100.00;58037.16;2058230;28;1177;-68
2022/06/07 04:05:24;;;;;;;;;;;;;;;-145.88;100.00;58037.16;2061843;28;1272;-69
2022/06/07 04:06:29;;;;;;;;;;;;;;;-145.88;100.00;58037.16;2060847;28;1089;-69
2022/06/07 04:08:52;;;;;;;;;;;;;;;-145.88;100.00;58037.16;2066548;28;1085;-70
2022/06/07 04:09:55;;;;;;;;;;;;;;;-145.88;100.00;58037.16;2066237;28;1119;-69
2022/06/07 04:10:58;;;;;;;;;;;;;;;-145.88;100.00;58037.16;2066336;28;1053;-69
2022/06/07 04:12:00;;;;;;;;;;;;;;;-145.88;100.00;58037.16;2066258;28;1057;-69
2022/06/07 04:13:05;;;;;;;;;;;;;;;-145.88;100.00;58037.16;2066228;28;1146;-69
2022/06/07 04:14:06;;;;;;;;;;;;;;;-145.88;100.00;58037.16;2065857;28;1197;-69
2022/06/07 04:15:09;;;;;;;;;;;;;;;-145.88;100.00;58037.16;2066508;28;1066;-69
2022/06/07 04:16:12;;;;;;;;;;;;;;;-145.88;100.00;58037.16;2066515;28;1520;-68
2022/06/07 04:17:15;;;;;;;;;;;;;;;-145.88;100.00;58037.16;2061450;28;1062;-70
2022/06/07 04:18:19;;;;;;;;;;;;;;;-145.88;100.00;58037.16;2063145;28;1125;-70
2022/06/07 04:19:20;;;;;;;;;;;;;;;-145.88;100.00;58037.16;2066404;28;995;-69
2022/06/07 04:20:23;;;;;;;;;;;;;;;-145.88;100.00;58037.16;2066232;28;1049;-69
2022/06/07 04:21:25;;;;;;;;;;;;;;;-145.88;100.00;58037.16;2065745;28;1078;-69
2022/06/07 04:22:28;;;;;;;;;;;;;;;-145.88;100.00;58037.16;2066557;28;1483;-69
2022/06/07 04:23:31;;;;;;;;;;;;;;;-145.88;100.00;58037.16;2066121;28;1110;-69
2022/06/07 04:24:32;;;;;;;;;;;;;;;-145.88;100.00;58037.16;2066198;28;2069;-69
2022/06/07 04:25:36;;;;;;;;;;;;;;;-145.88;100.00;58037.16;2066231;28;1026;-69
2022/06/07 04:26:39;;;;;;;;;;;;;;;-145.88;100.00;58037.16;2066048;28;1198;-69
2022/06/07 04:27:40;;;;;;;;;;;;;;;-145.88;100.00;58037.16;2066151;28;2288;-69
2022/06/07 04:28:45;;;;;;;;;;;;;;;-145.88;100.00;58037.16;2058363;28;1529;-70
2022/06/07 04:29:48;;;;;;;;;;;;;;;-145.88;100.00;58037.16;2066157;28;1462;-69
2022/06/07 04:30:50;;;;;;;;;;;;;;;-145.88;100.00;58037.16;2066179;28;1126;-69
2022/06/07 04:31:52;;;;;;;;;;;;;;;-145.88;100.00;58037.16;2066285;28;1081;-69
2022/06/07 04:32:54;;;;;;;;;;;;;;;-145.88;100.00;58037.16;2066235;28;1347;-69
2022/06/07 04:33:58;;;;;;;;;;;;;;;-145.88;100.00;58037.16;2065965;28;1186;-69
2022/06/07 04:35:00;;;;;;;;;;;;;;;-145.88;100.00;58037.16;2066575;28;1119;-69
2022/06/07 04:36:02;;;;;;;;;;;;;;;-145.88;100.00;58037.16;2065757;28;1346;-69
2022/06/07 04:37:05;;;;;;;;;;;;;;;-145.88;100.00;58037.16;2066375;28;1058;-69
2022/06/07 04:38:08;;;;;;;;;;;;;;;-145.88;100.00;58037.16;2066074;28;1162;-69
2022/06/07 04:39:11;;;;;;;;;;;;;;;-145.88;100.00;58037.16;2066170;28;1138;-69
2022/06/07 04:40:14;;;;;;;;;;;;;;;-145.88;100.00;58037.16;2057333;28;1552;-69
2022/06/07 04:41:17;;;;;;;;;;;;;;;-145.88;100.00;58037.16;2065641;28;1107;-69
2022/06/07 04:42:23;;;;;;;;;;;;;;;-145.88;100.00;58037.16;2066260;28;1106;-69
2022/06/07 04:43:24;;;;;;;;;;;;;;;-145.88;100.00;58037.16;2065865;28;1154;-69
2022/06/07 04:44:30;;;;;;;;;;;;;;;-145.88;100.00;58037.16;2066066;28;1143;-69
2022/06/07 04:45:32;;;;;;;;;;;;;;;-145.88;100.00;58037.16;2066019;28;1135;-69
2022/06/07 04:46:35;;;;;;;;;;;;;;;-145.88;100.00;58037.16;2065845;28;1185;-69
2022/06/07 04:47:36;;;;;;;;;;;;;;;-145.88;100.00;58037.16;2066099;28;1109;-69
2022/06/07 04:48:39;;;;;;;;;;;;;;;-145.88;100.00;58037.16;2065903;28;1977;-70
2022/06/07 04:49:41;;;;;;;;;;;;;;;-145.88;100.00;58037.16;2065989;28;1340;-69
2022/06/07 04:50:44;;;;;;;;;;;;;;;-145.88;100.00;58037.16;2062897;28;1142;-69
2022/06/07 04:51:48;;;;;;;;;;;;;;;-145.88;100.00;58037.16;2060741;28;1186;-69
2022/06/07 04:52:50;;;;;;;;;;;;;;;-145.88;100.00;58037.16;2066009;28;1067;-69
2022/06/07 04:53:52;;;;;;;;;;;;;;;-145.88;100.00;58037.16;2066001;28;1030;-69
2022/06/07 04:54:54;;;;;;;;;;;;;;;-145.88;100.00;58037.16;2066047;28;1298;-69
2022/06/07 04:55:57;;;;;;;;;;;;;;;-145.88;100.00;58037.16;2065804;28;1166;-68
2022/06/07 04:56:59;;;;;;;;;;;;;;;-145.88;100.00;58037.16;2065849;28;1125;-68
2022/06/07 04:58:02;;;;;;;;;;;;;;;-145.88;100.00;58037.16;2065758;28;1135;-68
2022/06/07 04:59:05;;;;;;;;;;;;;;;-145.88;100.00;58037.16;2065599;28;1347;-68
2022/06/07 05:00:13;;;;;;;;;;;;;;;-145.88;100.00;58037.16;2065955;28;1169;-68
2022/06/07 05:01:16;;;;;;;;;;;;;;;-145.88;100.00;58037.16;2065866;28;1138;-68
2022/06/07 05:02:19;;;;;;;;;;;;;;;-145.88;100.00;58037.16;2061737;28;1093;-69
2022/06/07 05:03:22;;;;;;;;;;;;;;;-145.88;100.00;58037.16;2061310;28;1163;-68
2022/06/07 05:04:24;;;;;;;;;;;;;;;-145.88;100.00;58037.16;2065830;28;1301;-68
2022/06/07 05:05:28;;;;;;;;;;;;;;;-145.88;100.00;58037.16;2065860;28;1115;-69
2022/06/07 05:06:31;;;;;;;;;;;;;;;-145.88;100.00;58037.16;2065887;28;1153;-68
2022/06/07 05:07:33;;;;;;;;;;;;;;;-145.88;100.00;58037.16;2065953;28;1057;-69
2022/06/07 05:08:35;;;;;;;;;;;;;;;-145.88;100.00;58037.16;2065716;28;1997;-68
2022/06/07 05:09:38;;;;;;;;;;;;;;;-145.88;100.00;58037.16;2066117;28;1082;-69
2022/06/07 05:10:41;;;;;;;;;;;;;;;-145.88;100.00;58037.16;2065840;28;1123;-67
2022/06/07 05:11:45;;;;;;;;;;;;;;;-145.88;100.00;58037.16;2065348;28;1556;-68
2022/06/07 05:12:48;;;;;;;;;;;;;;;-145.88;100.00;58037.16;2065968;28;1158;-68
2022/06/07 05:13:51;;;;;;;;;;;;;;;-145.88;100.00;58037.16;2061096;28;968;-68
2022/06/07 05:14:54;;;;;;;;;;;;;;;-145.88;100.00;58037.16;2061418;28;1185;-68
2022/06/07 05:15:59;;;;;;;;;;;;;;;-145.88;100.00;58037.16;2065960;28;971;-68
2022/06/07 05:17:00;;;;;;;;;;;;;;;-145.88;100.00;58037.16;2065643;28;1505;-68
2022/06/07 05:18:03;;;;;;;;;;;;;;;-145.88;100.00;58037.16;2065710;28;1281;-68
2022/06/07 05:19:06;;;;;;;;;;;;;;;-145.88;100.00;58037.16;2065649;28;1539;-69
2022/06/07 05:20:09;;;;;;;;;;;;;;;-145.88;100.00;58037.16;2065738;28;1131;-69
2022/06/07 05:21:11;;;;;;;;;;;;;;;-145.88;100.00;58037.16;2065432;28;1107;-68
2022/06/07 05:22:14;;;;;;;;;;;;;;;-145.88;100.00;58037.16;2065750;28;1510;-69
2022/06/07 05:23:16;;;;;;;;;;;;;;;-145.88;100.00;58037.16;2066072;28;1031;-69
2022/06/07 05:24:19;;;;;;;;;;;;;;;-145.88;100.00;58037.16;2065644;28;1191;-69
2022/06/07 05:25:20;;;;;;;;;;;;;;;-145.88;100.00;58037.16;2061039;28;1749;-69
2022/06/07 05:26:26;;;;;;;;;;;;;;;-145.88;100.00;58037.16;2062015;28;1068;-69
2022/06/07 05:27:33;;;;;;;;;;;;;;;-145.88;100.00;58037.16;2065805;28;1056;-69
2022/06/07 05:28:36;;;;;;;;;;;;;;;-145.88;100.00;58037.16;2065248;28;1971;-69